Time;durP1;ratioP1;P1;durP2;ratioP2;P2;SDS_P1;SDS_P2;PMS_P1;PMS_P2;Temp;Humidity;BMP_temperature;BMP_pressure;BME280_temperature;BME280_humidity;BME280_pressure;Samples;Min_cycle;Max_cycle;Signal;HPM_P1;HPM_P2
2020/12/20 00:02:01;;;;;;;19.92;11.88;;;;;;;;;;5013920;28;20049;-88
2020/12/20 00:04:27;;;;;;;18.75;10.80;;;;;;;;;;5000715;28;20058;-88
2020/12/20 00:06:53;;;;;;;14.77;10.20;;;;;;;;;;4994122;28;20078;-88
2020/12/20 00:09:21;;;;;;;14.95;9.68;;;;;;;;;;4994199;28;20050;-88
2020/12/20 00:11:51;;;;;;;15.15;9.68;;;;;;;;;;4994726;28;20046;-87
2020/12/20 00:14:29;;;;;;;16.25;9.40;;;;;;;;;;4994363;28;20384;-87
2020/12/20 00:17:01;;;;;;;15.98;10.13;;;;;;;;;;4994211;28;20046;-87
2020/12/20 00:19:28;;;;;;;15.07;10.30;;;;;;;;;;4994174;28;20479;-87
2020/12/20 00:21:56;;;;;;;17.42;10.40;;;;;;;;;;4994671;28;20134;-87
2020/12/20 00:24:21;;;;;;;16.83;11.48;;;;;;;;;;4994255;28;20470;-88
2020/12/20 00:26:47;;;;;;;17.23;10.98;;;;;;;;;;4993736;28;20064;-87
2020/12/20 00:29:13;;;;;;;17.80;11.07;;;;;;;;;;4993679;28;20735;-88
2020/12/20 00:31:39;;;;;;;20.73;11.15;;;;;;;;;;4993743;28;20042;-87
2020/12/20 00:34:07;;;;;;;20.10;11.88;;;;;;;;;;4993935;28;20054;-87
2020/12/20 00:36:33;;;;;;;16.58;10.93;;;;;;;;;;4994728;28;20410;-87
2020/12/20 00:38:59;;;;;;;17.17;11.52;;;;;;;;;;4994367;28;20061;-88
2020/12/20 00:41:25;;;;;;;20.55;12.63;;;;;;;;;;4994399;28;20054;-88
2020/12/20 00:43:51;;;;;;;18.98;11.32;;;;;;;;;;4995277;28;20046;-87
2020/12/20 00:46:17;;;;;;;18.77;10.52;;;;;;;;;;4994257;28;20078;-87
2020/12/20 00:48:43;;;;;;;19.88;11.32;;;;;;;;;;4996471;28;20050;-87
2020/12/20 00:51:10;;;;;;;15.75;10.65;;;;;;;;;;4998738;28;20050;-87
2020/12/20 00:53:36;;;;;;;16.58;9.93;;;;;;;;;;4998499;28;20403;-87
2020/12/20 00:56:03;;;;;;;20.73;10.95;;;;;;;;;;4998360;28;20046;-87
2020/12/20 00:58:29;;;;;;;23.35;12.15;;;;;;;;;;4998588;28;20635;-87
2020/12/20 01:00:55;;;;;;;29.75;13.02;;;;;;;;;;4998983;28;20125;-87
2020/12/20 01:03:21;;;;;;;17.73;10.65;;;;;;;;;;4999170;28;20050;-88
2020/12/20 01:05:47;;;;;;;18.33;11.02;;;;;;;;;;5000017;28;20525;-88
2020/12/20 01:08:14;;;;;;;16.15;10.30;;;;;;;;;;5005962;28;20050;-88
2020/12/20 01:10:40;;;;;;;17.10;10.73;;;;;;;;;;4998655;28;20043;-88
2020/12/20 01:13:06;;;;;;;18.20;11.35;;;;;;;;;;4998629;28;20051;-88
2020/12/20 01:15:32;;;;;;;15.65;10.30;;;;;;;;;;4998301;28;20050;-89
2020/12/20 01:17:59;;;;;;;18.30;10.50;;;;;;;;;;4999114;28;20048;-89
2020/12/20 01:20:25;;;;;;;14.20;9.73;;;;;;;;;;4998455;28;20085;-88
2020/12/20 01:22:51;;;;;;;16.95;10.25;;;;;;;;;;4980099;28;20546;-88
2020/12/20 01:25:18;;;;;;;17.50;9.95;;;;;;;;;;4990480;28;20042;-89
2020/12/20 01:27:44;;;;;;;14.55;9.60;;;;;;;;;;4998075;28;20050;-89
2020/12/20 01:30:10;;;;;;;16.15;9.75;;;;;;;;;;4998025;28;20093;-88
2020/12/20 01:32:36;;;;;;;13.25;9.18;;;;;;;;;;4998003;28;20049;-88
2020/12/20 01:35:03;;;;;;;14.00;9.23;;;;;;;;;;4997653;28;20049;-88
2020/12/20 01:37:31;;;;;;;18.95;10.73;;;;;;;;;;4996907;28;20153;-88
2020/12/20 01:39:57;;;;;;;15.30;9.73;;;;;;;;;;4988836;28;20053;-87
2020/12/20 01:42:25;;;;;;;14.93;9.32;;;;;;;;;;4997171;28;20414;-88
2020/12/20 01:44:51;;;;;;;16.33;8.95;;;;;;;;;;4998384;28;20042;-88
2020/12/20 01:47:17;;;;;;;14.75;9.77;;;;;;;;;;4997851;28;20051;-88
2020/12/20 01:49:43;;;;;;;15.18;9.45;;;;;;;;;;4997875;28;20054;-88
2020/12/20 01:52:10;;;;;;;13.60;9.13;;;;;;;;;;4997754;28;20450;-88
2020/12/20 01:54:36;;;;;;;14.48;9.07;;;;;;;;;;4997620;28;20475;-88
2020/12/20 01:57:02;;;;;;;13.05;9.10;;;;;;;;;;4997866;28;20074;-88
2020/12/20 01:59:29;;;;;;;14.73;9.48;;;;;;;;;;4997028;28;20057;-88
2020/12/20 02:01:58;;;;;;;12.40;8.20;;;;;;;;;;4997619;28;20072;-88
2020/12/20 02:04:24;;;;;;;15.05;9.15;;;;;;;;;;4996757;28;20553;-88
2020/12/20 02:06:50;;;;;;;13.65;8.57;;;;;;;;;;4977538;28;20046;-88
2020/12/20 02:09:16;;;;;;;15.05;9.30;;;;;;;;;;4977886;28;20105;-88
2020/12/20 02:11:42;;;;;;;14.50;9.10;;;;;;;;;;4977489;28;20051;-88
2020/12/20 02:14:08;;;;;;;14.45;9.38;;;;;;;;;;4977941;28;20495;-88
2020/12/20 02:16:35;;;;;;;14.80;8.75;;;;;;;;;;4976972;28;20050;-88
2020/12/20 02:19:01;;;;;;;13.55;8.55;;;;;;;;;;4977207;28;20059;-88
2020/12/20 02:21:28;;;;;;;12.40;7.10;;;;;;;;;;4989944;28;20077;-88
2020/12/20 02:23:54;;;;;;;15.32;9.00;;;;;;;;;;5011552;28;20049;-88
2020/12/20 02:26:21;;;;;;;13.57;9.05;;;;;;;;;;4996632;28;20077;-88
2020/12/20 02:28:49;;;;;;;13.52;8.68;;;;;;;;;;4996418;28;20062;-88
2020/12/20 02:31:14;;;;;;;11.85;8.15;;;;;;;;;;4996187;28;20050;-88
2020/12/20 02:33:41;;;;;;;12.02;8.27;;;;;;;;;;4996670;28;20619;-88
2020/12/20 02:36:06;;;;;;;13.75;8.80;;;;;;;;;;4996215;28;20050;-88
2020/12/20 02:38:33;;;;;;;12.73;7.90;;;;;;;;;;4996158;28;20064;-88
2020/12/20 02:40:59;;;;;;;15.15;8.75;;;;;;;;;;4996024;28;20050;-88
2020/12/20 02:43:26;;;;;;;14.68;9.25;;;;;;;;;;4995903;28;20522;-88
2020/12/20 02:45:52;;;;;;;15.60;9.35;;;;;;;;;;4996505;28;20050;-88
2020/12/20 02:48:19;;;;;;;13.80;8.85;;;;;;;;;;4996038;28;20050;-89
2020/12/20 02:50:45;;;;;;;14.57;9.82;;;;;;;;;;4993494;28;20133;-89
2020/12/20 02:53:11;;;;;;;13.10;8.25;;;;;;;;;;4977381;28;20042;-88
2020/12/20 02:55:38;;;;;;;16.20;9.95;;;;;;;;;;4977037;28;20721;-89
2020/12/20 02:58:04;;;;;;;15.35;9.63;;;;;;;;;;4977180;28;20055;-88
2020/12/20 03:00:31;;;;;;;13.13;8.65;;;;;;;;;;4979708;28;20054;-89
2020/12/20 03:02:57;;;;;;;12.45;7.78;;;;;;;;;;4996258;28;20333;-89
2020/12/20 03:05:23;;;;;;;15.38;8.48;;;;;;;;;;4995946;28;20054;-89
2020/12/20 03:07:49;;;;;;;13.98;9.05;;;;;;;;;;5004342;28;20052;-89
2020/12/20 03:10:17;;;;;;;12.90;8.07;;;;;;;;;;4998482;28;20589;-89
2020/12/20 03:12:44;;;;;;;14.40;8.75;;;;;;;;;;4996129;28;20069;-89
2020/12/20 03:15:10;;;;;;;13.18;8.13;;;;;;;;;;4996591;28;20046;-89
2020/12/20 03:17:36;;;;;;;13.50;8.55;;;;;;;;;;4996697;28;20395;-89
2020/12/20 03:20:03;;;;;;;14.90;8.77;;;;;;;;;;4996316;28;20054;-89
2020/12/20 03:22:29;;;;;;;15.23;8.90;;;;;;;;;;4995880;28;20403;-89
2020/12/20 03:24:55;;;;;;;12.95;9.15;;;;;;;;;;4996341;28;20133;-89
2020/12/20 03:27:21;;;;;;;13.57;8.77;;;;;;;;;;4996031;28;20407;-89
2020/12/20 03:29:48;;;;;;;13.82;8.25;;;;;;;;;;4996536;28;20050;-89
2020/12/20 03:32:14;;;;;;;14.25;9.15;;;;;;;;;;4995800;28;20133;-89
2020/12/20 03:34:40;;;;;;;16.73;9.73;;;;;;;;;;4996406;28;20061;-89
2020/12/20 03:37:06;;;;;;;15.05;10.60;;;;;;;;;;4995996;28;20415;-89
2020/12/20 03:39:32;;;;;;;19.10;10.40;;;;;;;;;;4996141;28;20047;-88
2020/12/20 03:41:58;;;;;;;14.07;8.75;;;;;;;;;;4996311;28;20117;-89
2020/12/20 03:44:24;;;;;;;14.50;9.07;;;;;;;;;;4995733;28;20046;-88
2020/12/20 03:46:51;;;;;;;17.42;10.60;;;;;;;;;;4995564;28;20050;-88
2020/12/20 03:49:17;;;;;;;16.27;9.63;;;;;;;;;;4995490;28;20430;-88
2020/12/20 03:51:43;;;;;;;15.02;9.45;;;;;;;;;;4994276;28;20050;-89
2020/12/20 03:54:09;;;;;;;20.38;10.45;;;;;;;;;;4994865;28;20498;-88
2020/12/20 03:56:36;;;;;;;13.50;8.55;;;;;;;;;;4995667;28;20081;-88
2020/12/20 03:59:02;;;;;;;16.05;9.82;;;;;;;;;;4995493;28;20057;-89
2020/12/20 04:01:28;;;;;;;15.27;9.23;;;;;;;;;;4995065;28;20062;-88
2020/12/20 04:03:55;;;;;;;20.10;9.77;;;;;;;;;;4995433;28;20053;-89
2020/12/20 04:06:20;;;;;;;15.10;9.35;;;;;;;;;;4995191;28;20076;-89
2020/12/20 04:08:46;;;;;;;14.82;9.45;;;;;;;;;;4998580;28;20048;-89
2020/12/20 04:11:12;;;;;;;14.75;9.05;;;;;;;;;;5014708;28;20489;-89
2020/12/20 04:13:38;;;;;;;16.48;9.43;;;;;;;;;;5014707;28;20046;-88
2020/12/20 04:16:05;;;;;;;22.30;10.73;;;;;;;;;;5014669;28;20386;-88
2020/12/20 04:18:31;;;;;;;14.25;9.25;;;;;;;;;;5014715;28;20049;-88
2020/12/20 04:20:58;;;;;;;21.25;10.77;;;;;;;;;;5014731;28;20053;-88
2020/12/20 04:23:24;;;;;;;18.83;9.85;;;;;;;;;;5013938;28;20050;-88
2020/12/20 04:25:50;;;;;;;22.00;11.43;;;;;;;;;;5014815;28;20104;-88
2020/12/20 04:28:16;;;;;;;16.08;10.00;;;;;;;;;;5014230;28;20462;-88
2020/12/20 04:30:42;;;;;;;15.27;9.52;;;;;;;;;;5014473;28;20041;-88
2020/12/20 04:33:08;;;;;;;15.50;9.68;;;;;;;;;;5014437;28;20100;-88
2020/12/20 04:35:34;;;;;;;15.35;8.93;;;;;;;;;;5014128;28;20136;-88
2020/12/20 04:38:01;;;;;;;16.50;8.90;;;;;;;;;;5014273;28;20069;-89
2020/12/20 04:40:27;;;;;;;16.55;9.95;;;;;;;;;;4996632;28;20045;-89
2020/12/20 04:42:59;;;;;;;16.27;9.82;;;;;;;;;;5014471;28;20049;-88
2020/12/20 04:45:26;;;;;;;15.75;9.00;;;;;;;;;;5014053;28;20060;-89
2020/12/20 04:47:52;;;;;;;18.25;8.70;;;;;;;;;;5014089;28;20050;-89
2020/12/20 04:50:19;;;;;;;12.85;8.05;;;;;;;;;;5013878;28;20061;-89
2020/12/20 04:52:47;;;;;;;15.23;9.27;;;;;;;;;;5013921;28;20050;-89
2020/12/20 04:55:14;;;;;;;14.60;8.80;;;;;;;;;;5013548;28;20060;-89
2020/12/20 04:57:40;;;;;;;15.52;9.35;;;;;;;;;;5014026;28;20104;-88
2020/12/20 05:00:07;;;;;;;14.85;9.48;;;;;;;;;;5013777;28;20101;-88
2020/12/20 05:02:33;;;;;;;14.50;8.55;;;;;;;;;;5013811;28;20061;-89
2020/12/20 05:04:59;;;;;;;14.40;8.88;;;;;;;;;;5013425;28;20387;-88
2020/12/20 05:07:25;;;;;;;13.65;8.75;;;;;;;;;;5013360;28;20049;-88
2020/12/20 05:09:51;;;;;;;13.45;8.90;;;;;;;;;;5013371;28;20121;-88
2020/12/20 05:12:26;;;;;;;13.98;8.25;;;;;;;;;;5013534;28;20080;-88
2020/12/20 05:14:52;;;;;;;13.63;8.32;;;;;;;;;;5013720;28;20046;-88
2020/12/20 05:17:18;;;;;;;13.50;9.93;;;;;;;;;;5013885;28;20058;-88
2020/12/20 05:19:45;;;;;;;16.75;10.02;;;;;;;;;;5013494;28;20505;-88
2020/12/20 05:22:18;;;;;;;14.23;8.88;;;;;;;;;;5013759;28;20046;-89
2020/12/20 05:24:44;;;;;;;13.55;8.43;;;;;;;;;;5013541;28;20160;-89
2020/12/20 05:27:20;;;;;;;14.93;8.43;;;;;;;;;;5013511;28;20054;-89
2020/12/20 05:29:49;;;;;;;14.32;8.95;;;;;;;;;;5013493;28;20046;-89
2020/12/20 05:32:25;;;;;;;15.95;10.02;;;;;;;;;;5013543;28;20057;-89
2020/12/20 05:35:01;;;;;;;17.30;10.15;;;;;;;;;;5015257;28;20046;-89
2020/12/20 05:37:28;;;;;;;16.33;9.48;;;;;;;;;;5017128;28;20414;-89
2020/12/20 05:39:55;;;;;;;16.92;9.07;;;;;;;;;;5017221;28;20632;-89
2020/12/20 05:42:22;;;;;;;13.55;9.00;;;;;;;;;;5017154;28;20050;-89
2020/12/20 05:44:49;;;;;;;16.98;10.15;;;;;;;;;;5017127;28;20050;-89
2020/12/20 05:47:15;;;;;;;15.65;9.85;;;;;;;;;;5017121;28;20045;-89
2020/12/20 05:49:41;;;;;;;14.10;8.95;;;;;;;;;;5016946;28;20050;-89
2020/12/20 05:52:09;;;;;;;14.80;8.98;;;;;;;;;;5016928;28;20053;-89
2020/12/20 05:54:36;;;;;;;14.00;9.20;;;;;;;;;;5016811;28;20141;-89
2020/12/20 05:57:16;;;;;;;18.25;8.85;;;;;;;;;;5017016;28;20617;-89
2020/12/20 05:59:44;;;;;;;15.63;8.68;;;;;;;;;;5016659;28;20049;-89
2020/12/20 06:02:11;;;;;;;18.13;10.10;;;;;;;;;;5016639;28;20088;-89
2020/12/20 06:04:38;;;;;;;17.10;9.77;;;;;;;;;;5016488;28;20050;-89
2020/12/20 06:07:07;;;;;;;18.88;11.05;;;;;;;;;;5016812;28;20054;-89
2020/12/20 06:09:39;;;;;;;13.57;8.23;;;;;;;;;;5016326;28;20058;-89
2020/12/20 06:12:11;;;;;;;15.40;8.90;;;;;;;;;;5016711;28;20053;-89
2020/12/20 06:14:42;;;;;;;14.43;9.27;;;;;;;;;;5016716;28;20046;-89
2020/12/20 06:17:13;;;;;;;15.50;10.13;;;;;;;;;;5016825;28;20049;-89
2020/12/20 06:19:54;;;;;;;16.27;9.15;;;;;;;;;;5016288;28;20053;-88
2020/12/20 06:22:25;;;;;;;16.30;9.13;;;;;;;;;;5016764;28;20042;-89
2020/12/20 06:24:52;;;;;;;13.52;8.00;;;;;;;;;;5016175;28;20675;-88
2020/12/20 06:27:20;;;;;;;17.85;8.85;;;;;;;;;;5015959;28;20061;-89
2020/12/20 06:29:48;;;;;;;14.98;8.52;;;;;;;;;;5016043;28;20053;-89
2020/12/20 06:32:18;;;;;;;15.02;8.98;;;;;;;;;;5016628;28;20057;-89
2020/12/20 06:34:44;;;;;;;17.27;10.02;;;;;;;;;;5015847;28;20050;-88
2020/12/20 06:37:10;;;;;;;15.48;9.07;;;;;;;;;;5016004;28;20093;-89
2020/12/20 06:39:38;;;;;;;19.20;10.57;;;;;;;;;;5015988;28;20402;-89
2020/12/20 06:42:04;;;;;;;13.93;8.70;;;;;;;;;;5015786;28;20053;-89
2020/12/20 06:44:30;;;;;;;15.10;9.98;;;;;;;;;;5016015;28;20050;-89
2020/12/20 06:46:56;;;;;;;15.90;9.95;;;;;;;;;;5015155;28;20046;-89
2020/12/20 06:49:39;;;;;;;17.02;9.70;;;;;;;;;;5016086;28;20056;-89
2020/12/20 06:52:23;;;;;;;17.02;10.73;;;;;;;;;;5015471;28;20054;-89
2020/12/20 06:55:06;;;;;;;15.57;8.70;;;;;;;;;;5015393;28;20486;-89
2020/12/20 06:57:32;;;;;;;14.70;9.02;;;;;;;;;;5015249;28;20073;-89
2020/12/20 06:59:58;;;;;;;14.80;9.32;;;;;;;;;;5015344;28;20057;-89
2020/12/20 07:02:42;;;;;;;14.23;8.82;;;;;;;;;;5015542;28;20085;-89
2020/12/20 07:05:35;;;;;;;17.35;9.80;;;;;;;;;;5015274;28;20049;-89
2020/12/20 07:08:09;;;;;;;15.63;9.13;;;;;;;;;;5015564;28;20107;-89
2020/12/20 07:10:42;;;;;;;22.10;11.68;;;;;;;;;;5014948;28;20540;-89
2020/12/20 07:13:10;;;;;;;19.00;10.00;;;;;;;;;;4998070;28;20046;-89
2020/12/20 07:15:51;;;;;;;18.48;9.93;;;;;;;;;;5015163;28;20454;-89
2020/12/20 07:18:46;;;;;;;17.25;11.23;;;;;;;;;;5015236;28;20050;-89
2020/12/20 07:21:33;;;;;;;17.52;10.35;;;;;;;;;;5000633;28;20058;-89
2020/12/20 07:24:04;;;;;;;15.93;9.73;;;;;;;;;;4995652;28;20047;-89
2020/12/20 07:26:30;;;;;;;20.08;10.38;;;;;;;;;;4995279;28;20054;-89
2020/12/20 07:29:00;;;;;;;17.08;9.73;;;;;;;;;;4995295;28;20050;-89
2020/12/20 07:31:26;;;;;;;22.33;12.15;;;;;;;;;;4995396;28;20050;-89
2020/12/20 07:33:52;;;;;;;17.48;9.90;;;;;;;;;;4995491;28;20054;-89
2020/12/20 07:36:20;;;;;;;19.42;10.48;;;;;;;;;;4995517;28;20097;-90
2020/12/20 07:38:46;;;;;;;28.13;15.35;;;;;;;;;;4995593;28;20046;-90
2020/12/20 07:41:14;;;;;;;20.60;11.25;;;;;;;;;;4995537;28;20513;-89
2020/12/20 07:43:40;;;;;;;21.83;13.82;;;;;;;;;;4996021;28;20050;-89
2020/12/20 07:46:07;;;;;;;21.20;12.85;;;;;;;;;;4995769;28;20046;-89
2020/12/20 07:48:34;;;;;;;21.73;11.70;;;;;;;;;;4995667;28;20061;-89
2020/12/20 07:51:07;;;;;;;18.55;10.85;;;;;;;;;;4995538;28;20051;-89
2020/12/20 07:53:34;;;;;;;18.15;9.45;;;;;;;;;;4995392;28;20061;-89
2020/12/20 07:56:00;;;;;;;14.88;9.75;;;;;;;;;;4994536;28;20402;-89
2020/12/20 07:58:30;;;;;;;15.23;9.05;;;;;;;;;;4994296;28;20046;-89
2020/12/20 08:01:02;;;;;;;16.15;9.77;;;;;;;;;;4994536;28;20050;-89
2020/12/20 08:03:28;;;;;;;14.60;10.00;;;;;;;;;;4993917;28;20151;-89
2020/12/20 08:06:03;;;;;;;13.48;8.68;;;;;;;;;;4994331;28;20057;-89
2020/12/20 08:08:30;;;;;;;16.90;9.13;;;;;;;;;;4994564;28;20054;-89
2020/12/20 08:10:57;;;;;;;19.98;10.63;;;;;;;;;;4993823;28;20050;-90
2020/12/20 08:13:23;;;;;;;13.70;9.32;;;;;;;;;;4988564;28;20094;-89
2020/12/20 08:15:49;;;;;;;15.63;9.23;;;;;;;;;;4994136;28;20042;-89
2020/12/20 08:18:15;;;;;;;15.68;9.63;;;;;;;;;;4994118;28;20046;-89
2020/12/20 08:20:42;;;;;;;14.95;9.20;;;;;;;;;;4989580;28;20506;-89
2020/12/20 08:23:09;;;;;;;16.55;9.88;;;;;;;;;;4994952;28;20594;-89
2020/12/20 08:25:35;;;;;;;15.57;10.05;;;;;;;;;;4994674;28;20057;-89
2020/12/20 08:28:02;;;;;;;14.93;9.38;;;;;;;;;;4994472;28;20419;-90
2020/12/20 08:30:28;;;;;;;15.52;8.93;;;;;;;;;;4994600;28;20046;-89
2020/12/20 08:32:54;;;;;;;15.52;9.48;;;;;;;;;;4994236;28;20065;-89
2020/12/20 08:35:22;;;;;;;13.27;8.80;;;;;;;;;;4994724;28;20046;-89
2020/12/20 08:37:53;;;;;;;14.20;9.13;;;;;;;;;;4994023;28;20058;-89
2020/12/20 08:40:20;;;;;;;14.80;8.88;;;;;;;;;;4994706;28;20050;-89
2020/12/20 08:42:51;;;;;;;14.75;8.95;;;;;;;;;;4994376;28;20082;-89
2020/12/20 08:45:19;;;;;;;15.35;9.23;;;;;;;;;;4975431;28;20054;-88
2020/12/20 08:47:45;;;;;;;16.50;9.82;;;;;;;;;;4973891;28;20051;-89
2020/12/20 08:50:13;;;;;;;16.98;10.20;;;;;;;;;;4974483;28;20596;-88
2020/12/20 08:52:39;;;;;;;15.90;9.48;;;;;;;;;;4974467;28;20054;-88
2020/12/20 08:55:06;;;;;;;20.70;12.35;;;;;;;;;;4974236;28;20047;-88
2020/12/20 08:57:33;;;;;;;15.32;9.82;;;;;;;;;;5003607;28;20045;-88
2020/12/20 09:00:09;;;;;;;16.85;11.23;;;;;;;;;;4999851;28;20042;-88
2020/12/20 09:02:36;;;;;;;15.98;9.60;;;;;;;;;;4994131;28;20059;-88
2020/12/20 09:05:06;;;;;;;17.05;10.23;;;;;;;;;;4994392;28;20058;-87
2020/12/20 09:51:20;;;;;;;17.65;10.15;;;;;;;;;;4995727;28;20466;-87
2020/12/20 09:53:47;;;;;;;20.88;12.13;;;;;;;;;;5015547;28;20049;-86
2020/12/20 09:56:13;;;;;;;19.45;10.32;;;;;;;;;;5005441;28;20054;-86
2020/12/20 09:58:44;;;;;;;16.92;11.23;;;;;;;;;;4997096;28;20082;-86
2020/12/20 10:01:25;;;;;;;16.70;10.60;;;;;;;;;;4985278;23;20050;-86
2020/12/20 10:03:51;;;;;;;18.52;11.05;;;;;;;;;;4986745;28;20043;-86
2020/12/20 10:06:37;;;;;;;19.42;11.25;;;;;;;;;;4986292;28;20050;-87
2020/12/20 11:46:37;;;;;;;18.35;11.50;;;;;;;;;;4994371;28;20054;-85
2020/12/20 11:49:04;;;;;;;18.27;10.30;;;;;;;;;;5011389;28;20053;-86
2020/12/20 11:51:30;;;;;;;24.60;12.88;;;;;;;;;;5015615;28;20054;-87
2020/12/20 11:53:56;;;;;;;16.23;10.77;;;;;;;;;;5014935;28;20064;-87
2020/12/20 11:56:22;;;;;;;17.70;11.60;;;;;;;;;;5014715;28;20453;-86
2020/12/20 11:58:48;;;;;;;18.05;11.80;;;;;;;;;;5015030;28;20097;-87
2020/12/20 12:01:20;;;;;;;20.70;11.88;;;;;;;;;;5014951;28;20042;-87
2020/12/20 12:16:50;;;;;;;19.65;12.25;;;;;;;;;;4995273;28;20055;-86
2020/12/20 12:27:26;;;;;;;21.65;12.40;;;;;;;;;;4993192;28;20043;-87
2020/12/20 12:30:06;;;;;;;18.67;11.98;;;;;;;;;;4975194;28;20055;-87
2020/12/20 12:32:44;;;;;;;17.42;11.45;;;;;;;;;;4985325;28;20076;-88
2020/12/20 12:35:11;;;;;;;20.13;13.63;;;;;;;;;;5008169;28;20049;-87
2020/12/20 12:37:37;;;;;;;15.18;11.63;;;;;;;;;;5017025;28;20057;-87
2020/12/20 12:40:04;;;;;;;15.70;9.85;;;;;;;;;;5018357;28;20057;-88
2020/12/20 12:42:30;;;;;;;16.55;10.32;;;;;;;;;;5015672;28;20057;-87
2020/12/20 12:44:55;;;;;;;19.02;11.88;;;;;;;;;;5024170;28;20497;-87
2020/12/20 12:47:22;;;;;;;16.20;10.77;;;;;;;;;;5018829;28;20406;-87
2020/12/20 12:49:48;;;;;;;16.98;10.63;;;;;;;;;;5014122;28;20042;-87
2020/12/20 12:52:15;;;;;;;18.25;10.40;;;;;;;;;;5017789;28;20556;-87
2020/12/20 12:54:41;;;;;;;18.83;11.50;;;;;;;;;;5019404;28;20042;-87
2020/12/20 12:57:07;;;;;;;14.32;9.48;;;;;;;;;;5015539;28;20111;-87
2020/12/20 12:59:33;;;;;;;15.63;9.55;;;;;;;;;;5011070;28;20054;-87
2020/12/20 13:01:59;;;;;;;15.90;9.68;;;;;;;;;;5012660;28;20053;-87
2020/12/20 13:04:25;;;;;;;16.25;10.55;;;;;;;;;;4998981;28;20164;-87
2020/12/20 13:06:52;;;;;;;17.42;10.55;;;;;;;;;;4990063;28;20042;-87
2020/12/20 13:09:19;;;;;;;14.80;9.90;;;;;;;;;;4994048;28;20388;-87
2020/12/20 13:11:45;;;;;;;15.10;8.98;;;;;;;;;;4992769;28;20046;-87
2020/12/20 13:14:11;;;;;;;17.65;10.82;;;;;;;;;;4995963;28;20057;-88
2020/12/20 13:16:36;;;;;;;21.23;10.77;;;;;;;;;;4990610;28;20062;-88
2020/12/20 13:19:03;;;;;;;18.55;11.27;;;;;;;;;;4994695;28;20137;-87
2020/12/20 13:21:29;;;;;;;16.63;10.52;;;;;;;;;;4995601;28;21837;-88
2020/12/20 13:23:55;;;;;;;19.00;12.05;;;;;;;;;;4987465;28;20153;-89
2020/12/20 13:26:22;;;;;;;17.75;11.43;;;;;;;;;;4992547;28;20055;-88
2020/12/20 13:28:49;;;;;;;18.63;12.35;;;;;;;;;;4993441;28;20042;-88
2020/12/20 13:31:17;;;;;;;17.27;10.80;;;;;;;;;;4998432;28;20058;-88
2020/12/20 13:33:43;;;;;;;16.17;10.13;;;;;;;;;;4989209;28;20046;-88
2020/12/20 13:36:09;;;;;;;16.77;10.95;;;;;;;;;;4990223;28;20141;-88
2020/12/20 13:38:36;;;;;;;18.35;12.25;;;;;;;;;;4992555;28;20090;-88
2020/12/20 13:41:02;;;;;;;20.75;12.35;;;;;;;;;;4994681;28;20058;-88
2020/12/20 13:43:31;;;;;;;19.90;12.00;;;;;;;;;;4999076;28;20054;-88
2020/12/20 13:45:58;;;;;;;14.88;10.30;;;;;;;;;;4994142;28;20053;-88
2020/12/20 13:48:24;;;;;;;17.38;11.50;;;;;;;;;;4993547;28;20053;-88
2020/12/20 13:50:50;;;;;;;18.17;10.60;;;;;;;;;;4994171;28;20050;-88
2020/12/20 13:53:16;;;;;;;16.55;10.57;;;;;;;;;;4991377;28;20062;-88
2020/12/20 13:55:42;;;;;;;18.35;11.25;;;;;;;;;;5012543;28;20749;-88
2020/12/20 13:58:08;;;;;;;17.77;11.45;;;;;;;;;;4999166;28;20046;-89
2020/12/20 14:00:36;;;;;;;17.92;11.38;;;;;;;;;;4998270;28;20042;-88
2020/12/20 14:03:02;;;;;;;18.45;11.57;;;;;;;;;;5015308;28;20067;-88
2020/12/20 14:05:28;;;;;;;15.80;11.20;;;;;;;;;;5011511;28;20047;-89
2020/12/20 14:07:54;;;;;;;16.65;10.40;;;;;;;;;;5012299;28;20058;-89
2020/12/20 14:10:20;;;;;;;16.85;10.95;;;;;;;;;;5010835;28;20042;-89
2020/12/20 14:12:46;;;;;;;15.90;10.43;;;;;;;;;;5013435;28;20057;-89
2020/12/20 14:15:12;;;;;;;19.23;10.98;;;;;;;;;;5012060;28;20058;-89
2020/12/20 14:17:39;;;;;;;17.98;11.68;;;;;;;;;;4986703;28;20070;-89
2020/12/20 14:20:06;;;;;;;23.08;14.00;;;;;;;;;;4991896;28;20105;-89
2020/12/20 14:22:32;;;;;;;24.00;14.82;;;;;;;;;;4996391;28;20061;-88
2020/12/20 14:25:01;;;;;;;20.52;13.63;;;;;;;;;;4996813;28;20104;-89
2020/12/20 14:27:27;;;;;;;21.38;13.65;;;;;;;;;;5001222;28;20092;-89
2020/12/20 14:29:53;;;;;;;19.73;12.07;;;;;;;;;;4999444;28;20046;-90
2020/12/20 14:32:19;;;;;;;19.90;13.02;;;;;;;;;;5009582;28;20054;-89
2020/12/20 14:34:45;;;;;;;23.25;14.55;;;;;;;;;;5000607;28;20069;-89
2020/12/20 14:37:12;;;;;;;25.70;14.43;;;;;;;;;;5012116;28;20046;-90
2020/12/20 14:39:39;;;;;;;22.13;13.23;;;;;;;;;;5013698;28;20045;-89
2020/12/20 14:42:05;;;;;;;23.95;15.40;;;;;;;;;;5002159;28;20643;-89
2020/12/20 14:44:32;;;;;;;26.58;15.75;;;;;;;;;;5006192;28;20061;-89
2020/12/20 14:46:58;;;;;;;19.98;12.77;;;;;;;;;;5005521;28;20053;-89
2020/12/20 14:49:25;;;;;;;17.80;12.00;;;;;;;;;;5004402;28;20058;-89
2020/12/20 14:51:52;;;;;;;18.27;11.82;;;;;;;;;;5003419;28;20058;-88
2020/12/20 14:54:18;;;;;;;18.83;12.05;;;;;;;;;;5008242;28;20077;-88
2020/12/20 14:56:44;;;;;;;19.80;13.50;;;;;;;;;;5014578;28;20132;-89
2020/12/20 14:59:10;;;;;;;20.85;12.73;;;;;;;;;;4995770;28;20079;-88
2020/12/20 15:01:36;;;;;;;23.48;14.75;;;;;;;;;;5000784;28;20272;-89
2020/12/20 15:04:02;;;;;;;21.30;13.10;;;;;;;;;;4996194;28;20142;-89
2020/12/20 15:06:28;;;;;;;25.27;14.77;;;;;;;;;;5010127;28;20053;-89
2020/12/20 15:08:56;;;;;;;24.30;12.55;;;;;;;;;;4997930;28;20069;-89
2020/12/20 15:11:22;;;;;;;23.27;15.27;;;;;;;;;;5004088;28;20144;-90
2020/12/20 15:13:47;;;;;;;22.10;12.85;;;;;;;;;;5010765;28;20061;-90
2020/12/20 15:16:14;;;;;;;19.92;11.93;;;;;;;;;;5002875;28;20157;-90
2020/12/20 15:18:41;;;;;;;23.98;14.05;;;;;;;;;;5002037;28;20132;-90
2020/12/20 15:21:07;;;;;;;20.88;13.20;;;;;;;;;;5000256;28;20054;-89
2020/12/20 15:23:33;;;;;;;22.15;12.75;;;;;;;;;;4992203;28;20516;-89
2020/12/20 15:26:00;;;;;;;22.75;13.88;;;;;;;;;;4999298;28;20076;-90
2020/12/20 15:28:26;;;;;;;22.17;12.82;;;;;;;;;;5005221;28;20133;-89
2020/12/20 15:30:52;;;;;;;22.70;13.15;;;;;;;;;;5004797;28;20130;-90
2020/12/20 15:33:18;;;;;;;20.55;12.13;;;;;;;;;;5008442;28;20046;-90
2020/12/20 15:35:44;;;;;;;18.65;12.23;;;;;;;;;;5005281;28;20414;-90
2020/12/20 15:38:10;;;;;;;20.92;13.57;;;;;;;;;;5009489;28;20128;-90
2020/12/20 15:40:37;;;;;;;23.58;13.52;;;;;;;;;;5009744;28;20072;-89
2020/12/20 15:43:04;;;;;;;20.73;11.98;;;;;;;;;;5006919;28;20054;-90
2020/12/20 15:45:30;;;;;;;21.20;13.00;;;;;;;;;;5008047;28;20095;-89
2020/12/20 15:47:56;;;;;;;18.63;12.00;;;;;;;;;;5002717;28;20096;-90
2020/12/20 15:50:22;;;;;;;19.02;12.32;;;;;;;;;;4996841;28;20498;-89
2020/12/20 15:52:48;;;;;;;28.67;20.55;;;;;;;;;;5016355;28;20060;-90
2020/12/20 15:55:14;;;;;;;21.70;14.18;;;;;;;;;;5009552;28;20050;-89
2020/12/20 15:57:40;;;;;;;22.60;15.27;;;;;;;;;;4983031;28;20138;-89
2020/12/20 16:00:08;;;;;;;22.88;14.07;;;;;;;;;;4971872;28;20422;-89
2020/12/20 16:02:40;;;;;;;20.98;13.82;;;;;;;;;;5003573;28;20053;-89
2020/12/20 17:56:20;;;;;;;29.92;15.45;;;;;;;;;;4996886;26;20054;-89
2020/12/20 17:58:46;;;;;;;26.65;14.38;;;;;;;;;;4998767;28;20050;-89
2020/12/20 18:01:12;;;;;;;27.42;14.25;;;;;;;;;;5014661;28;20072;-89
2020/12/20 18:03:38;;;;;;;24.08;14.02;;;;;;;;;;5009770;28;20082;-89
2020/12/20 18:06:11;;;;;;;26.02;14.82;;;;;;;;;;4997616;28;20057;-89
2020/12/20 18:58:13;;;;;;;28.00;13.82;;;;;;;;;;5550181;23;20051;-90
2020/12/20 19:00:39;;;;;;;28.05;14.35;;;;;;;;;;4976788;28;20051;-90
2020/12/20 19:03:05;;;;;;;35.83;15.15;;;;;;;;;;4996034;28;20732;-90
2020/12/20 19:05:31;;;;;;;26.60;13.65;;;;;;;;;;4991699;28;20409;-90
2020/12/20 19:07:57;;;;;;;31.80;14.57;;;;;;;;;;4994521;28;20057;-90
2020/12/20 19:10:23;;;;;;;26.25;14.13;;;;;;;;;;4991033;28;20150;-90
2020/12/20 19:12:49;;;;;;;26.02;14.48;;;;;;;;;;4991416;28;20544;-89
2020/12/20 19:15:16;;;;;;;27.95;17.65;;;;;;;;;;4990739;28;20084;-89
2020/12/20 19:17:42;;;;;;;28.73;16.05;;;;;;;;;;4988983;28;20098;-89
2020/12/20 19:20:08;;;;;;;28.15;16.10;;;;;;;;;;4989865;28;20049;-90
2020/12/20 19:22:34;;;;;;;23.75;14.45;;;;;;;;;;4986227;28;20153;-89
2020/12/20 19:25:00;;;;;;;26.90;16.23;;;;;;;;;;4988834;28;20046;-89
2020/12/20 19:27:26;;;;;;;28.38;17.02;;;;;;;;;;5006499;28;20825;-89
2020/12/20 19:29:53;;;;;;;22.77;14.15;;;;;;;;;;4996188;28;20038;-89
2020/12/20 19:32:20;;;;;;;24.38;14.15;;;;;;;;;;4995310;28;20058;-89
2020/12/20 19:34:47;;;;;;;19.13;11.40;;;;;;;;;;4995012;28;20414;-89
2020/12/20 19:37:13;;;;;;;22.25;13.55;;;;;;;;;;4994583;28;20477;-89
2020/12/20 19:39:39;;;;;;;21.23;12.00;;;;;;;;;;4994763;28;20227;-89
2020/12/20 19:42:07;;;;;;;20.70;12.55;;;;;;;;;;4994376;28;20046;-89
2020/12/20 19:44:34;;;;;;;23.42;14.32;;;;;;;;;;4994212;28;20110;-89
2020/12/20 19:47:02;;;;;;;24.00;14.02;;;;;;;;;;4994874;28;20409;-90
2020/12/20 19:49:29;;;;;;;23.63;14.07;;;;;;;;;;4994952;28;20054;-90